sensor_id;sensor_type;location;lat;lon;timestamp;temperature;humidity
36586;DHT22;22591;48.314;11.562;2022-12-29T00:01:26;2.90;99.90
36586;DHT22;22591;48.314;11.562;2022-12-29T00:03:52;3.00;99.90
36586;DHT22;22591;48.314;11.562;2022-12-29T00:06:17;3.10;99.90
36586;DHT22;22591;48.314;11.562;2022-12-29T00:08:43;3.10;99.90
36586;DHT22;22591;48.314;11.562;2022-12-29T00:11:14;3.20;99.90
36586;DHT22;22591;48.314;11.562;2022-12-29T00:13:41;3.30;99.90
36586;DHT22;22591;48.314;11.562;2022-12-29T00:16:25;3.40;99.90
36586;DHT22;22591;48.314;11.562;2022-12-29T00:18:51;3.50;99.90
36586;DHT22;22591;48.314;11.562;2022-12-29T00:21:21;3.50;99.90
36586;DHT22;22591;48.314;11.562;2022-12-29T00:24:05;3.60;99.90
36586;DHT22;22591;48.314;11.562;2022-12-29T00:27:03;3.60;99.90
36586;DHT22;22591;48.314;11.562;2022-12-29T00:29:52;3.70;99.90
36586;DHT22;22591;48.314;11.562;2022-12-29T00:32:36;3.70;99.90
36586;DHT22;22591;48.314;11.562;2022-12-29T00:35:27;3.70;99.90
36586;DHT22;22591;48.314;11.562;2022-12-29T00:37:55;3.70;99.90
36586;DHT22;22591;48.314;11.562;2022-12-29T00:40:41;3.80;99.90
36586;DHT22;22591;48.314;11.562;2022-12-29T00:43:25;3.80;99.90
36586;DHT22;22591;48.314;11.562;2022-12-29T00:46:09;3.90;99.90
36586;DHT22;22591;48.314;11.562;2022-12-29T00:48:35;3.90;99.90
36586;DHT22;22591;48.314;11.562;2022-12-29T00:51:19;3.90;99.90
36586;DHT22;22591;48.314;11.562;2022-12-29T00:53:45;3.80;99.90
36586;DHT22;22591;48.314;11.562;2022-12-29T00:56:10;3.70;99.90
36586;DHT22;22591;48.314;11.562;2022-12-29T00:58:36;3.80;99.90
36586;DHT22;22591;48.314;11.562;2022-12-29T01:01:06;3.80;99.90
36586;DHT22;22591;48.314;11.562;2022-12-29T01:03:33;3.90;99.90
36586;DHT22;22591;48.314;11.562;2022-12-29T01:06:01;3.90;99.90
36586;DHT22;22591;48.314;11.562;2022-12-29T01:08:27;4.00;99.90
36586;DHT22;22591;48.314;11.562;2022-12-29T01:11:00;4.00;99.90
36586;DHT22;22591;48.314;11.562;2022-12-29T01:13:25;4.00;99.90
36586;DHT22;22591;48.314;11.562;2022-12-29T01:15:52;4.10;99.90
36586;DHT22;22591;48.314;11.562;2022-12-29T01:18:18;4.10;99.90
36586;DHT22;22591;48.314;11.562;2022-12-29T01:20:43;4.10;99.90
36586;DHT22;22591;48.314;11.562;2022-12-29T01:23:09;4.10;99.90
36586;DHT22;22591;48.314;11.562;2022-12-29T01:25:34;4.20;99.90
36586;DHT22;22591;48.314;11.562;2022-12-29T01:28:00;4.10;99.90
36586;DHT22;22591;48.314;11.562;2022-12-29T01:30:25;4.10;99.90
36586;DHT22;22591;48.314;11.562;2022-12-29T01:32:51;4.00;99.90
36586;DHT22;22591;48.314;11.562;2022-12-29T01:35:16;4.00;99.90
36586;DHT22;22591;48.314;11.562;2022-12-29T01:37:42;4.00;99.90
36586;DHT22;22591;48.314;11.562;2022-12-29T01:40:08;3.90;99.90
36586;DHT22;22591;48.314;11.562;2022-12-29T01:42:33;3.90;99.90
36586;DHT22;22591;48.314;11.562;2022-12-29T01:47:55;3.90;99.90
36586;DHT22;22591;48.314;11.562;2022-12-29T01:50:28;3.90;99.90
36586;DHT22;22591;48.314;11.562;2022-12-29T01:53:10;3.90;99.90
36586;DHT22;22591;48.314;11.562;2022-12-29T01:55:40;3.90;99.90
36586;DHT22;22591;48.314;11.562;2022-12-29T01:58:09;3.90;99.90
36586;DHT22;22591;48.314;11.562;2022-12-29T02:00:36;4.00;99.90
36586;DHT22;22591;48.314;11.562;2022-12-29T02:03:02;4.00;99.90
36586;DHT22;22591;48.314;11.562;2022-12-29T02:05:44;4.00;99.90
36586;DHT22;22591;48.314;11.562;2022-12-29T02:08:11;4.10;99.90
36586;DHT22;22591;48.314;11.562;2022-12-29T02:10:39;4.10;99.90
36586;DHT22;22591;48.314;11.562;2022-12-29T02:13:05;4.10;99.90
36586;DHT22;22591;48.314;11.562;2022-12-29T02:15:34;4.20;99.90
36586;DHT22;22591;48.314;11.562;2022-12-29T02:29:46;4.20;99.90
36586;DHT22;22591;48.314;11.562;2022-12-29T02:32:42;4.10;99.90
36586;DHT22;22591;48.314;11.562;2022-12-29T02:46:37;4.30;99.90
36586;DHT22;22591;48.314;11.562;2022-12-29T02:49:19;4.40;99.90
36586;DHT22;22591;48.314;11.562;2022-12-29T02:51:55;4.50;99.90
36586;DHT22;22591;48.314;11.562;2022-12-29T02:54:24;4.60;99.90
36586;DHT22;22591;48.314;11.562;2022-12-29T02:59:37;4.80;99.90
36586;DHT22;22591;48.314;11.562;2022-12-29T03:02:17;4.80;99.90
36586;DHT22;22591;48.314;11.562;2022-12-29T03:10:58;5.00;99.90
36586;DHT22;22591;48.314;11.562;2022-12-29T03:16:27;5.10;99.90
36586;DHT22;22591;48.314;11.562;2022-12-29T03:19:00;5.10;99.90
36586;DHT22;22591;48.314;11.562;2022-12-29T03:21:50;5.10;99.90
36586;DHT22;22591;48.314;11.562;2022-12-29T03:24:41;5.20;99.90
36586;DHT22;22591;48.314;11.562;2022-12-29T03:27:12;5.20;99.90
36586;DHT22;22591;48.314;11.562;2022-12-29T03:29:51;5.30;99.90
36586;DHT22;22591;48.314;11.562;2022-12-29T03:32:20;5.30;99.90
36586;DHT22;22591;48.314;11.562;2022-12-29T03:34:48;5.40;99.90
36586;DHT22;22591;48.314;11.562;2022-12-29T03:37:17;5.30;99.90
36586;DHT22;22591;48.314;11.562;2022-12-29T03:39:44;5.40;99.90
36586;DHT22;22591;48.314;11.562;2022-12-29T03:42:14;5.40;99.90
36586;DHT22;22591;48.314;11.562;2022-12-29T03:44:43;5.50;99.90
36586;DHT22;22591;48.314;11.562;2022-12-29T03:47:14;5.50;99.90
36586;DHT22;22591;48.314;11.562;2022-12-29T03:49:39;5.60;99.90
36586;DHT22;22591;48.314;11.562;2022-12-29T03:52:05;5.60;99.90
36586;DHT22;22591;48.314;11.562;2022-12-29T03:54:31;5.70;99.90
36586;DHT22;22591;48.314;11.562;2022-12-29T03:56:57;5.70;99.90
36586;DHT22;22591;48.314;11.562;2022-12-29T03:59:23;5.80;99.90
36586;DHT22;22591;48.314;11.562;2022-12-29T04:01:48;5.90;99.90
36586;DHT22;22591;48.314;11.562;2022-12-29T04:04:14;6.00;99.90
36586;DHT22;22591;48.314;11.562;2022-12-29T04:06:40;6.00;99.90
36586;DHT22;22591;48.314;11.562;2022-12-29T04:09:06;6.00;99.90
36586;DHT22;22591;48.314;11.562;2022-12-29T04:11:32;6.10;99.90
36586;DHT22;22591;48.314;11.562;2022-12-29T04:13:57;6.10;99.90
36586;DHT22;22591;48.314;11.562;2022-12-29T04:16:23;6.10;99.90
36586;DHT22;22591;48.314;11.562;2022-12-29T04:18:48;6.10;99.90
36586;DHT22;22591;48.314;11.562;2022-12-29T04:21:14;6.20;99.90
36586;DHT22;22591;48.314;11.562;2022-12-29T04:23:40;6.20;99.90
36586;DHT22;22591;48.314;11.562;2022-12-29T04:26:07;6.30;99.90
36586;DHT22;22591;48.314;11.562;2022-12-29T04:28:33;6.20;99.90
36586;DHT22;22591;48.314;11.562;2022-12-29T04:30:59;6.20;99.90
36586;DHT22;22591;48.314;11.562;2022-12-29T04:33:25;6.20;99.90
36586;DHT22;22591;48.314;11.562;2022-12-29T04:35:51;6.30;99.90
36586;DHT22;22591;48.314;11.562;2022-12-29T04:38:19;6.30;99.90
36586;DHT22;22591;48.314;11.562;2022-12-29T04:40:46;6.30;99.90
36586;DHT22;22591;48.314;11.562;2022-12-29T04:43:12;6.30;99.90
36586;DHT22;22591;48.314;11.562;2022-12-29T04:45:39;6.40;99.90
36586;DHT22;22591;48.314;11.562;2022-12-29T04:48:05;6.30;99.90
36586;DHT22;22591;48.314;11.562;2022-12-29T04:50:30;6.40;99.90
36586;DHT22;22591;48.314;11.562;2022-12-29T04:52:56;6.40;99.90
36586;DHT22;22591;48.314;11.562;2022-12-29T04:55:21;6.40;99.90
36586;DHT22;22591;48.314;11.562;2022-12-29T04:57:47;6.40;99.90
36586;DHT22;22591;48.314;11.562;2022-12-29T05:00:13;6.40;99.90
36586;DHT22;22591;48.314;11.562;2022-12-29T05:02:38;6.40;99.90
36586;DHT22;22591;48.314;11.562;2022-12-29T05:05:05;6.50;99.90
36586;DHT22;22591;48.314;11.562;2022-12-29T05:07:31;6.60;99.90
36586;DHT22;22591;48.314;11.562;2022-12-29T05:09:58;6.60;99.90
36586;DHT22;22591;48.314;11.562;2022-12-29T05:12:24;6.70;99.90
36586;DHT22;22591;48.314;11.562;2022-12-29T05:14:49;6.70;99.90
36586;DHT22;22591;48.314;11.562;2022-12-29T05:17:15;6.70;99.90
36586;DHT22;22591;48.314;11.562;2022-12-29T05:19:41;6.70;99.90
36586;DHT22;22591;48.314;11.562;2022-12-29T05:22:06;6.70;99.90
36586;DHT22;22591;48.314;11.562;2022-12-29T05:24:32;6.60;99.90
36586;DHT22;22591;48.314;11.562;2022-12-29T05:26:57;6.70;99.90
36586;DHT22;22591;48.314;11.562;2022-12-29T05:29:23;6.70;99.90
36586;DHT22;22591;48.314;11.562;2022-12-29T05:31:48;6.70;99.90
36586;DHT22;22591;48.314;11.562;2022-12-29T05:34:14;6.70;99.90
36586;DHT22;22591;48.314;11.562;2022-12-29T05:36:39;6.70;99.90
36586;DHT22;22591;48.314;11.562;2022-12-29T05:39:05;6.70;99.90
36586;DHT22;22591;48.314;11.562;2022-12-29T05:41:33;6.60;99.90
36586;DHT22;22591;48.314;11.562;2022-12-29T05:43:58;6.60;99.90
36586;DHT22;22591;48.314;11.562;2022-12-29T05:46:24;6.60;99.90
36586;DHT22;22591;48.314;11.562;2022-12-29T05:48:49;6.70;99.90
36586;DHT22;22591;48.314;11.562;2022-12-29T05:51:15;6.70;99.90
36586;DHT22;22591;48.314;11.562;2022-12-29T05:53:41;6.70;99.90
36586;DHT22;22591;48.314;11.562;2022-12-29T05:56:06;6.70;99.90
36586;DHT22;22591;48.314;11.562;2022-12-29T05:58:32;6.70;99.90
36586;DHT22;22591;48.314;11.562;2022-12-29T06:00:57;6.70;99.90
36586;DHT22;22591;48.314;11.562;2022-12-29T06:03:23;6.70;99.90
36586;DHT22;22591;48.314;11.562;2022-12-29T06:05:49;6.80;99.90
36586;DHT22;22591;48.314;11.562;2022-12-29T06:08:15;6.80;99.90
36586;DHT22;22591;48.314;11.562;2022-12-29T06:10:40;6.80;99.90
36586;DHT22;22591;48.314;11.562;2022-12-29T06:13:06;6.90;99.90
36586;DHT22;22591;48.314;11.562;2022-12-29T06:15:33;6.90;99.90
36586;DHT22;22591;48.314;11.562;2022-12-29T06:17:58;6.90;99.90
36586;DHT22;22591;48.314;11.562;2022-12-29T06:20:24;6.80;99.90
36586;DHT22;22591;48.314;11.562;2022-12-29T06:22:50;6.80;99.90
36586;DHT22;22591;48.314;11.562;2022-12-29T06:25:15;6.80;99.90
36586;DHT22;22591;48.314;11.562;2022-12-29T06:27:41;6.80;99.90
36586;DHT22;22591;48.314;11.562;2022-12-29T06:30:08;6.80;99.90
36586;DHT22;22591;48.314;11.562;2022-12-29T06:32:35;6.80;99.90
36586;DHT22;22591;48.314;11.562;2022-12-29T06:35:01;6.80;99.90
36586;DHT22;22591;48.314;11.562;2022-12-29T06:37:26;6.90;99.90
36586;DHT22;22591;48.314;11.562;2022-12-29T06:39:52;6.90;99.90
36586;DHT22;22591;48.314;11.562;2022-12-29T06:42:18;6.90;99.90
36586;DHT22;22591;48.314;11.562;2022-12-29T06:44:43;7.00;99.60
36586;DHT22;22591;48.314;11.562;2022-12-29T06:47:09;7.10;99.60
36586;DHT22;22591;48.314;11.562;2022-12-29T06:49:34;7.10;99.40
36586;DHT22;22591;48.314;11.562;2022-12-29T06:52:00;7.10;99.20
36586;DHT22;22591;48.314;11.562;2022-12-29T06:54:28;7.20;98.90
36586;DHT22;22591;48.314;11.562;2022-12-29T06:56:54;7.20;98.90
36586;DHT22;22591;48.314;11.562;2022-12-29T06:59:19;7.30;98.80
36586;DHT22;22591;48.314;11.562;2022-12-29T07:01:45;7.50;98.50
36586;DHT22;22591;48.314;11.562;2022-12-29T07:04:10;7.60;98.30
36586;DHT22;22591;48.314;11.562;2022-12-29T07:06:36;7.60;98.30
36586;DHT22;22591;48.314;11.562;2022-12-29T07:09:02;7.70;98.10
36586;DHT22;22591;48.314;11.562;2022-12-29T07:11:27;7.80;98.10
36586;DHT22;22591;48.314;11.562;2022-12-29T07:13:53;7.70;98.10
36586;DHT22;22591;48.314;11.562;2022-12-29T07:16:18;7.80;98.30
36586;DHT22;22591;48.314;11.562;2022-12-29T07:18:44;7.80;98.10
36586;DHT22;22591;48.314;11.562;2022-12-29T07:21:09;7.80;98.20
36586;DHT22;22591;48.314;11.562;2022-12-29T07:23:35;7.80;98.40
36586;DHT22;22591;48.314;11.562;2022-12-29T07:26:06;7.80;98.30
36586;DHT22;22591;48.314;11.562;2022-12-29T07:28:32;7.70;98.60
36586;DHT22;22591;48.314;11.562;2022-12-29T07:30:58;7.70;99.20
36586;DHT22;22591;48.314;11.562;2022-12-29T07:33:24;7.60;99.60
36586;DHT22;22591;48.314;11.562;2022-12-29T07:35:50;7.50;99.70
36586;DHT22;22591;48.314;11.562;2022-12-29T07:38:15;7.40;99.80
36586;DHT22;22591;48.314;11.562;2022-12-29T07:40:42;7.30;99.80
36586;DHT22;22591;48.314;11.562;2022-12-29T07:43:08;7.20;99.40
36586;DHT22;22591;48.314;11.562;2022-12-29T07:45:33;7.30;99.10
36586;DHT22;22591;48.314;11.562;2022-12-29T07:47:59;7.40;98.80
36586;DHT22;22591;48.314;11.562;2022-12-29T07:50:24;7.50;99.00
36586;DHT22;22591;48.314;11.562;2022-12-29T07:52:50;7.50;99.00
36586;DHT22;22591;48.314;11.562;2022-12-29T07:55:16;7.50;99.20
36586;DHT22;22591;48.314;11.562;2022-12-29T07:57:41;7.50;99.40
36586;DHT22;22591;48.314;11.562;2022-12-29T08:00:08;7.50;99.40
36586;DHT22;22591;48.314;11.562;2022-12-29T08:02:35;7.60;99.50
36586;DHT22;22591;48.314;11.562;2022-12-29T08:05:00;7.60;99.60
36586;DHT22;22591;48.314;11.562;2022-12-29T08:07:26;7.60;99.70
36586;DHT22;22591;48.314;11.562;2022-12-29T08:09:51;7.70;99.80
36586;DHT22;22591;48.314;11.562;2022-12-29T08:12:17;7.70;99.90
36586;DHT22;22591;48.314;11.562;2022-12-29T08:14:43;7.70;99.90
36586;DHT22;22591;48.314;11.562;2022-12-29T08:17:09;7.80;99.90
36586;DHT22;22591;48.314;11.562;2022-12-29T08:19:35;7.90;99.90
36586;DHT22;22591;48.314;11.562;2022-12-29T08:22:01;7.90;99.70
36586;DHT22;22591;48.314;11.562;2022-12-29T08:24:26;8.00;99.60
36586;DHT22;22591;48.314;11.562;2022-12-29T08:26:52;8.10;99.10
36586;DHT22;22591;48.314;11.562;2022-12-29T08:29:18;8.30;98.50
36586;DHT22;22591;48.314;11.562;2022-12-29T08:31:43;8.60;98.20
36586;DHT22;22591;48.314;11.562;2022-12-29T08:34:09;8.90;97.70
36586;DHT22;22591;48.314;11.562;2022-12-29T08:36:34;9.10;97.30
36586;DHT22;22591;48.314;11.562;2022-12-29T08:39:00;9.20;97.00
36586;DHT22;22591;48.314;11.562;2022-12-29T08:41:26;9.50;96.60
36586;DHT22;22591;48.314;11.562;2022-12-29T08:43:51;9.60;96.10
36586;DHT22;22591;48.314;11.562;2022-12-29T08:46:17;9.70;95.90
36586;DHT22;22591;48.314;11.562;2022-12-29T08:48:43;9.80;96.10
36586;DHT22;22591;48.314;11.562;2022-12-29T08:51:09;9.80;96.30
36586;DHT22;22591;48.314;11.562;2022-12-29T08:53:34;9.70;96.90
36586;DHT22;22591;48.314;11.562;2022-12-29T08:56:01;9.70;96.60
36586;DHT22;22591;48.314;11.562;2022-12-29T08:58:27;9.80;96.70
36586;DHT22;22591;48.314;11.562;2022-12-29T09:00:56;9.80;96.60
36586;DHT22;22591;48.314;11.562;2022-12-29T09:03:23;9.90;96.40
36586;DHT22;22591;48.314;11.562;2022-12-29T09:05:51;10.00;96.30
36586;DHT22;22591;48.314;11.562;2022-12-29T09:08:17;10.30;96.30
36586;DHT22;22591;48.314;11.562;2022-12-29T09:10:43;10.60;96.10
36586;DHT22;22591;48.314;11.562;2022-12-29T09:13:10;10.90;95.90
36586;DHT22;22591;48.314;11.562;2022-12-29T09:15:36;11.20;95.70
36586;DHT22;22591;48.314;11.562;2022-12-29T09:18:02;11.50;95.20
36586;DHT22;22591;48.314;11.562;2022-12-29T09:20:27;11.80;95.00
36586;DHT22;22591;48.314;11.562;2022-12-29T09:22:53;12.10;94.50
36586;DHT22;22591;48.314;11.562;2022-12-29T09:25:19;12.30;93.90
36586;DHT22;22591;48.314;11.562;2022-12-29T09:27:45;12.40;93.10
36586;DHT22;22591;48.314;11.562;2022-12-29T09:30:11;12.60;93.30
36586;DHT22;22591;48.314;11.562;2022-12-29T09:32:38;12.70;92.20
36586;DHT22;22591;48.314;11.562;2022-12-29T09:35:04;12.80;91.40
36586;DHT22;22591;48.314;11.562;2022-12-29T09:37:30;12.80;92.00
36586;DHT22;22591;48.314;11.562;2022-12-29T09:39:55;12.90;91.30
36586;DHT22;22591;48.314;11.562;2022-12-29T09:45:39;12.80;91.70
36586;DHT22;22591;48.314;11.562;2022-12-29T09:48:14;12.70;92.20
36586;DHT22;22591;48.314;11.562;2022-12-29T09:50:44;12.60;92.20
36586;DHT22;22591;48.314;11.562;2022-12-29T09:53:36;12.60;92.20
36586;DHT22;22591;48.314;11.562;2022-12-29T09:56:05;12.60;92.40
36586;DHT22;22591;48.314;11.562;2022-12-29T09:58:48;12.50;92.60
36586;DHT22;22591;48.314;11.562;2022-12-29T10:03:50;12.60;92.60
36586;DHT22;22591;48.314;11.562;2022-12-29T10:17:24;12.70;91.70
36586;DHT22;22591;48.314;11.562;2022-12-29T10:25:25;12.50;90.40
36586;DHT22;22591;48.314;11.562;2022-12-29T10:27:53;12.50;90.50
36586;DHT22;22591;48.314;11.562;2022-12-29T10:30:20;12.40;90.30
36586;DHT22;22591;48.314;11.562;2022-12-29T10:33:13;12.40;90.30
36586;DHT22;22591;48.314;11.562;2022-12-29T10:35:41;12.40;89.70
36586;DHT22;22591;48.314;11.562;2022-12-29T10:41:23;12.30;90.20
36586;DHT22;22591;48.314;11.562;2022-12-29T10:43:53;12.30;90.70
36586;DHT22;22591;48.314;11.562;2022-12-29T10:46:23;12.30;90.30
36586;DHT22;22591;48.314;11.562;2022-12-29T10:48:49;12.20;90.70
36586;DHT22;22591;48.314;11.562;2022-12-29T10:51:28;12.20;90.40
36586;DHT22;22591;48.314;11.562;2022-12-29T10:59:06;12.10;90.80
36586;DHT22;22591;48.314;11.562;2022-12-29T11:01:41;12.20;88.80
36586;DHT22;22591;48.314;11.562;2022-12-29T11:07:01;12.50;89.70
36586;DHT22;22591;48.314;11.562;2022-12-29T11:09:29;12.60;88.60
36586;DHT22;22591;48.314;11.562;2022-12-29T11:11:55;12.80;88.80
36586;DHT22;22591;48.314;11.562;2022-12-29T11:14:31;12.90;87.90
36586;DHT22;22591;48.314;11.562;2022-12-29T11:16:58;13.10;86.10
36586;DHT22;22591;48.314;11.562;2022-12-29T11:19:29;13.00;86.00
36586;DHT22;22591;48.314;11.562;2022-12-29T11:22:14;12.80;84.70
36586;DHT22;22591;48.314;11.562;2022-12-29T11:24:46;12.70;86.20
36586;DHT22;22591;48.314;11.562;2022-12-29T11:27:25;12.60;87.30
36586;DHT22;22591;48.314;11.562;2022-12-29T11:29:53;12.50;86.00
36586;DHT22;22591;48.314;11.562;2022-12-29T11:32:23;12.50;87.10
36586;DHT22;22591;48.314;11.562;2022-12-29T11:34:49;12.40;87.90
36586;DHT22;22591;48.314;11.562;2022-12-29T11:37:25;12.40;87.60
36586;DHT22;22591;48.314;11.562;2022-12-29T11:40:02;12.30;87.70
36586;DHT22;22591;48.314;11.562;2022-12-29T11:42:37;12.20;87.90
36586;DHT22;22591;48.314;11.562;2022-12-29T11:45:15;12.10;87.10
36586;DHT22;22591;48.314;11.562;2022-12-29T11:47:51;12.20;86.60
36586;DHT22;22591;48.314;11.562;2022-12-29T11:50:38;12.20;86.40
36586;DHT22;22591;48.314;11.562;2022-12-29T11:53:25;12.30;86.10
36586;DHT22;22591;48.314;11.562;2022-12-29T11:55:54;12.40;85.80
36586;DHT22;22591;48.314;11.562;2022-12-29T11:58:27;12.40;86.10
36586;DHT22;22591;48.314;11.562;2022-12-29T12:00:54;12.60;85.00
36586;DHT22;22591;48.314;11.562;2022-12-29T12:03:23;12.70;83.60
36586;DHT22;22591;48.314;11.562;2022-12-29T12:06:01;12.70;85.00
36586;DHT22;22591;48.314;11.562;2022-12-29T12:08:39;12.90;84.20
36586;DHT22;22591;48.314;11.562;2022-12-29T12:11:24;12.90;83.20
36586;DHT22;22591;48.314;11.562;2022-12-29T12:14:01;13.00;83.70
36586;DHT22;22591;48.314;11.562;2022-12-29T12:16:40;13.00;83.70
36586;DHT22;22591;48.314;11.562;2022-12-29T12:19:32;13.10;82.80
36586;DHT22;22591;48.314;11.562;2022-12-29T12:22:41;13.10;83.10
36586;DHT22;22591;48.314;11.562;2022-12-29T12:25:17;13.00;82.60
36586;DHT22;22591;48.314;11.562;2022-12-29T12:28:06;13.00;83.00
36586;DHT22;22591;48.314;11.562;2022-12-29T12:30:40;13.20;82.80
36586;DHT22;22591;48.314;11.562;2022-12-29T12:33:31;13.40;82.50
36586;DHT22;22591;48.314;11.562;2022-12-29T12:36:23;13.40;82.50
36586;DHT22;22591;48.314;11.562;2022-12-29T12:58:19;13.30;83.80
36586;DHT22;22591;48.314;11.562;2022-12-29T13:04:00;13.40;84.20
36586;DHT22;22591;48.314;11.562;2022-12-29T13:14:37;13.50;85.30
36586;DHT22;22591;48.314;11.562;2022-12-29T13:22:22;13.60;86.70
36586;DHT22;22591;48.314;11.562;2022-12-29T13:27:33;13.70;87.60
36586;DHT22;22591;48.314;11.562;2022-12-29T13:30:22;13.70;88.20
36586;DHT22;22591;48.314;11.562;2022-12-29T13:35:59;13.60;88.80
36586;DHT22;22591;48.314;11.562;2022-12-29T13:38:45;13.50;89.50
36586;DHT22;22591;48.314;11.562;2022-12-29T13:41:23;13.40;89.60
36586;DHT22;22591;48.314;11.562;2022-12-29T13:43:50;13.40;89.70
36586;DHT22;22591;48.314;11.562;2022-12-29T13:46:27;13.30;90.00
36586;DHT22;22591;48.314;11.562;2022-12-29T13:48:56;13.20;90.20
36586;DHT22;22591;48.314;11.562;2022-12-29T13:51:24;13.20;90.00
36586;DHT22;22591;48.314;11.562;2022-12-29T13:56:41;13.10;90.10
36586;DHT22;22591;48.314;11.562;2022-12-29T14:04:21;12.90;90.50
36586;DHT22;22591;48.314;11.562;2022-12-29T14:06:47;12.90;90.50
36586;DHT22;22591;48.314;11.562;2022-12-29T14:09:41;12.80;90.80
36586;DHT22;22591;48.314;11.562;2022-12-29T14:17:35;12.60;91.20
36586;DHT22;22591;48.314;11.562;2022-12-29T14:20:01;12.50;91.40
36586;DHT22;22591;48.314;11.562;2022-12-29T14:22:28;12.40;91.60
36586;DHT22;22591;48.314;11.562;2022-12-29T14:24:54;12.30;91.90
36586;DHT22;22591;48.314;11.562;2022-12-29T14:29:47;12.30;91.90
36586;DHT22;22591;48.314;11.562;2022-12-29T14:34:54;12.20;92.30
36586;DHT22;22591;48.314;11.562;2022-12-29T14:39:49;12.00;92.60
36586;DHT22;22591;48.314;11.562;2022-12-29T14:42:29;11.90;92.70
36586;DHT22;22591;48.314;11.562;2022-12-29T14:47:42;11.80;92.90
36586;DHT22;22591;48.314;11.562;2022-12-29T14:52:55;11.80;93.10
36586;DHT22;22591;48.314;11.562;2022-12-29T14:55:40;11.70;93.20
36586;DHT22;22591;48.314;11.562;2022-12-29T14:58:26;11.60;93.20
36586;DHT22;22591;48.314;11.562;2022-12-29T15:00:53;11.60;93.30
36586;DHT22;22591;48.314;11.562;2022-12-29T15:05:54;11.50;93.30
36586;DHT22;22591;48.314;11.562;2022-12-29T15:08:26;11.40;93.60
36586;DHT22;22591;48.314;11.562;2022-12-29T15:11:00;11.40;93.80
36586;DHT22;22591;48.314;11.562;2022-12-29T15:13:39;11.40;93.80
36586;DHT22;22591;48.314;11.562;2022-12-29T15:18:52;11.40;93.90
36586;DHT22;22591;48.314;11.562;2022-12-29T15:21:24;11.40;94.00
36586;DHT22;22591;48.314;11.562;2022-12-29T15:23:50;11.40;94.10
36586;DHT22;22591;48.314;11.562;2022-12-29T15:26:16;11.30;94.10
36586;DHT22;22591;48.314;11.562;2022-12-29T15:28:47;11.30;94.30
36586;DHT22;22591;48.314;11.562;2022-12-29T15:31:24;11.20;94.40
36586;DHT22;22591;48.314;11.562;2022-12-29T15:33:53;11.20;94.60
36586;DHT22;22591;48.314;11.562;2022-12-29T15:36:24;11.20;94.70
36586;DHT22;22591;48.314;11.562;2022-12-29T15:38:50;11.10;94.90
36586;DHT22;22591;48.314;11.562;2022-12-29T15:41:46;11.00;95.00
36586;DHT22;22591;48.314;11.562;2022-12-29T15:44:41;11.10;95.10
36586;DHT22;22591;48.314;11.562;2022-12-29T15:47:19;11.00;95.20
36586;DHT22;22591;48.314;11.562;2022-12-29T15:49:50;11.00;95.40
36586;DHT22;22591;48.314;11.562;2022-12-29T15:52:21;11.00;95.30
36586;DHT22;22591;48.314;11.562;2022-12-29T15:54:50;10.90;95.40
36586;DHT22;22591;48.314;11.562;2022-12-29T15:57:31;10.90;95.50
36586;DHT22;22591;48.314;11.562;2022-12-29T16:00:01;10.90;95.50
36586;DHT22;22591;48.314;11.562;2022-12-29T16:02:27;10.80;95.80
36586;DHT22;22591;48.314;11.562;2022-12-29T16:04:53;10.80;95.60
36586;DHT22;22591;48.314;11.562;2022-12-29T16:07:28;10.70;95.70
36586;DHT22;22591;48.314;11.562;2022-12-29T16:09:55;10.70;95.70
36586;DHT22;22591;48.314;11.562;2022-12-29T16:12:25;10.70;95.80
36586;DHT22;22591;48.314;11.562;2022-12-29T16:14:56;10.60;95.80
36586;DHT22;22591;48.314;11.562;2022-12-29T16:17:25;10.70;95.90
36586;DHT22;22591;48.314;11.562;2022-12-29T16:24:56;10.80;95.80
36586;DHT22;22591;48.314;11.562;2022-12-29T16:27:37;10.80;95.70
36586;DHT22;22591;48.314;11.562;2022-12-29T16:30:20;10.80;95.70
36586;DHT22;22591;48.314;11.562;2022-12-29T16:32:52;10.80;95.90
36586;DHT22;22591;48.314;11.562;2022-12-29T16:38:19;11.00;95.80
36586;DHT22;22591;48.314;11.562;2022-12-29T16:40:57;10.90;96.10
36586;DHT22;22591;48.314;11.562;2022-12-29T16:43:23;10.90;96.00
36586;DHT22;22591;48.314;11.562;2022-12-29T16:46:20;10.90;96.10
36586;DHT22;22591;48.314;11.562;2022-12-29T16:48:51;10.80;96.30
36586;DHT22;22591;48.314;11.562;2022-12-29T16:51:34;10.70;96.60
36586;DHT22;22591;48.314;11.562;2022-12-29T16:54:01;10.60;96.90
36586;DHT22;22591;48.314;11.562;2022-12-29T16:56:30;10.50;97.10
36586;DHT22;22591;48.314;11.562;2022-12-29T16:59:07;10.50;97.20
36586;DHT22;22591;48.314;11.562;2022-12-29T17:01:39;10.50;97.30
36586;DHT22;22591;48.314;11.562;2022-12-29T17:04:07;10.50;97.30
36586;DHT22;22591;48.314;11.562;2022-12-29T17:06:34;10.60;97.40
36586;DHT22;22591;48.314;11.562;2022-12-29T17:08:59;10.60;97.50
36586;DHT22;22591;48.314;11.562;2022-12-29T17:11:30;10.60;97.40
36586;DHT22;22591;48.314;11.562;2022-12-29T17:16:59;10.80;97.30
36586;DHT22;22591;48.314;11.562;2022-12-29T17:19:35;10.80;97.30
36586;DHT22;22591;48.314;11.562;2022-12-29T17:22:01;10.80;97.40
36586;DHT22;22591;48.314;11.562;2022-12-29T17:24:27;10.80;97.60
36586;DHT22;22591;48.314;11.562;2022-12-29T17:26:58;10.70;97.70
36586;DHT22;22591;48.314;11.562;2022-12-29T17:31:59;10.70;98.00
36586;DHT22;22591;48.314;11.562;2022-12-29T17:34:25;10.60;98.20
36586;DHT22;22591;48.314;11.562;2022-12-29T17:36:51;10.50;98.30
36586;DHT22;22591;48.314;11.562;2022-12-29T17:39:16;10.50;98.50
36586;DHT22;22591;48.314;11.562;2022-12-29T17:41:42;10.30;98.70
36586;DHT22;22591;48.314;11.562;2022-12-29T17:44:15;10.20;99.00
36586;DHT22;22591;48.314;11.562;2022-12-29T17:46:41;10.20;99.20
36586;DHT22;22591;48.314;11.562;2022-12-29T17:49:13;10.30;99.30
36586;DHT22;22591;48.314;11.562;2022-12-29T17:51:41;10.40;99.30
36586;DHT22;22591;48.314;11.562;2022-12-29T17:54:22;10.30;99.20
36586;DHT22;22591;48.314;11.562;2022-12-29T17:56:49;10.40;99.30
36586;DHT22;22591;48.314;11.562;2022-12-29T17:59:15;10.40;99.30
36586;DHT22;22591;48.314;11.562;2022-12-29T18:01:43;10.30;99.30
36586;DHT22;22591;48.314;11.562;2022-12-29T18:04:17;10.30;99.40
36586;DHT22;22591;48.314;11.562;2022-12-29T18:06:43;10.30;99.40
36586;DHT22;22591;48.314;11.562;2022-12-29T18:09:09;10.30;99.30
36586;DHT22;22591;48.314;11.562;2022-12-29T18:11:40;10.40;99.20
36586;DHT22;22591;48.314;11.562;2022-12-29T18:14:14;10.40;99.10
36586;DHT22;22591;48.314;11.562;2022-12-29T18:16:40;10.40;99.10
36586;DHT22;22591;48.314;11.562;2022-12-29T18:19:05;10.40;99.10
36586;DHT22;22591;48.314;11.562;2022-12-29T18:21:31;10.40;99.10